sensor_id;sensor_type;location;lat;lon;timestamp;P1;durP1;ratioP1;P2;durP2;ratioP2
7051;SDS011;3567;52.444;13.556;2022-10-23T00:03:56;14.60;;;8.73;;
7051;SDS011;3567;52.444;13.556;2022-10-23T00:06:22;9.93;;;7.88;;
7051;SDS011;3567;52.444;13.556;2022-10-23T00:08:48;13.48;;;8.23;;
7051;SDS011;3567;52.444;13.556;2022-10-23T00:11:15;22.75;;;9.15;;
7051;SDS011;3567;52.444;13.556;2022-10-23T00:13:43;12.98;;;8.63;;
7051;SDS011;3567;52.444;13.556;2022-10-23T00:16:09;10.25;;;8.35;;
7051;SDS011;3567;52.444;13.556;2022-10-23T00:18:35;12.98;;;9.05;;
7051;SDS011;3567;52.444;13.556;2022-10-23T00:21:02;13.68;;;9.48;;
7051;SDS011;3567;52.444;13.556;2022-10-23T00:23:29;14.10;;;9.75;;
7051;SDS011;3567;52.444;13.556;2022-10-23T00:25:54;14.32;;;10.02;;
7051;SDS011;3567;52.444;13.556;2022-10-23T00:28:20;18.55;;;9.35;;
7051;SDS011;3567;52.444;13.556;2022-10-23T00:30:45;11.20;;;9.25;;
7051;SDS011;3567;52.444;13.556;2022-10-23T00:33:10;14.43;;;9.38;;
7051;SDS011;3567;52.444;13.556;2022-10-23T00:35:39;13.15;;;9.45;;
7051;SDS011;3567;52.444;13.556;2022-10-23T00:38:06;12.30;;;9.35;;
7051;SDS011;3567;52.444;13.556;2022-10-23T00:40:32;12.90;;;9.35;;
7051;SDS011;3567;52.444;13.556;2022-10-23T00:42:57;14.55;;;9.98;;
7051;SDS011;3567;52.444;13.556;2022-10-23T00:45:24;15.43;;;9.80;;
7051;SDS011;3567;52.444;13.556;2022-10-23T00:47:51;12.38;;;8.70;;
7051;SDS011;3567;52.444;13.556;2022-10-23T00:50:18;10.57;;;9.35;;
7051;SDS011;3567;52.444;13.556;2022-10-23T00:52:48;9.18;;;8.15;;
7051;SDS011;3567;52.444;13.556;2022-10-23T00:55:16;15.05;;;9.13;;
7051;SDS011;3567;52.444;13.556;2022-10-23T00:57:43;12.23;;;8.70;;
7051;SDS011;3567;52.444;13.556;2022-10-23T01:00:12;9.82;;;8.10;;
7051;SDS011;3567;52.444;13.556;2022-10-23T01:02:42;9.73;;;8.82;;
7051;SDS011;3567;52.444;13.556;2022-10-23T01:05:07;13.70;;;9.25;;
7051;SDS011;3567;52.444;13.556;2022-10-23T01:07:55;9.82;;;8.73;;
7051;SDS011;3567;52.444;13.556;2022-10-23T01:13:14;8.60;;;7.80;;
7051;SDS011;3567;52.444;13.556;2022-10-23T01:15:45;10.35;;;7.57;;
7051;SDS011;3567;52.444;13.556;2022-10-23T01:18:28;10.13;;;7.57;;
7051;SDS011;3567;52.444;13.556;2022-10-23T01:21:20;13.65;;;8.10;;
7051;SDS011;3567;52.444;13.556;2022-10-23T01:29:39;10.73;;;8.52;;
7051;SDS011;3567;52.444;13.556;2022-10-23T01:32:09;7.63;;;6.63;;
7051;SDS011;3567;52.444;13.556;2022-10-23T01:34:45;9.45;;;7.72;;
7051;SDS011;3567;52.444;13.556;2022-10-23T01:37:17;8.88;;;7.57;;
7051;SDS011;3567;52.444;13.556;2022-10-23T01:39:48;8.40;;;7.25;;
7051;SDS011;3567;52.444;13.556;2022-10-23T01:42:21;10.48;;;8.07;;
7051;SDS011;3567;52.444;13.556;2022-10-23T01:44:58;8.98;;;7.88;;
7051;SDS011;3567;52.444;13.556;2022-10-23T01:47:27;9.65;;;8.27;;
7051;SDS011;3567;52.444;13.556;2022-10-23T01:49:57;9.10;;;7.55;;
7051;SDS011;3567;52.444;13.556;2022-10-23T01:52:25;12.30;;;8.48;;
7051;SDS011;3567;52.444;13.556;2022-10-23T01:54:50;10.27;;;8.13;;
7051;SDS011;3567;52.444;13.556;2022-10-23T01:57:20;13.70;;;8.38;;
7051;SDS011;3567;52.444;13.556;2022-10-23T01:59:52;11.40;;;9.00;;
7051;SDS011;3567;52.444;13.556;2022-10-23T02:02:22;9.52;;;8.38;;
7051;SDS011;3567;52.444;13.556;2022-10-23T02:05:00;12.30;;;9.48;;
7051;SDS011;3567;52.444;13.556;2022-10-23T02:07:28;12.18;;;8.05;;
7051;SDS011;3567;52.444;13.556;2022-10-23T02:09:54;9.13;;;8.23;;
7051;SDS011;3567;52.444;13.556;2022-10-23T02:12:30;9.20;;;8.07;;
7051;SDS011;3567;52.444;13.556;2022-10-23T02:15:08;8.73;;;7.68;;
7051;SDS011;3567;52.444;13.556;2022-10-23T02:20:28;9.30;;;7.70;;
7051;SDS011;3567;52.444;13.556;2022-10-23T02:25:38;10.90;;;8.50;;
7051;SDS011;3567;52.444;13.556;2022-10-23T02:28:15;10.23;;;9.05;;
7051;SDS011;3567;52.444;13.556;2022-10-23T02:30:44;11.15;;;8.32;;
7051;SDS011;3567;52.444;13.556;2022-10-23T02:33:11;9.77;;;8.60;;
7051;SDS011;3567;52.444;13.556;2022-10-23T02:35:38;10.00;;;7.75;;
7051;SDS011;3567;52.444;13.556;2022-10-23T02:38:25;10.23;;;7.30;;
7051;SDS011;3567;52.444;13.556;2022-10-23T02:44:01;14.70;;;7.97;;
7051;SDS011;3567;52.444;13.556;2022-10-23T02:46:35;11.63;;;9.25;;
7051;SDS011;3567;52.444;13.556;2022-10-23T03:00:23;12.07;;;7.90;;
7051;SDS011;3567;52.444;13.556;2022-10-23T03:02:55;10.82;;;8.00;;
7051;SDS011;3567;52.444;13.556;2022-10-23T03:05:25;8.18;;;7.38;;
7051;SDS011;3567;52.444;13.556;2022-10-23T03:07:54;9.13;;;8.23;;
7051;SDS011;3567;52.444;13.556;2022-10-23T03:10:20;8.13;;;6.60;;
7051;SDS011;3567;52.444;13.556;2022-10-23T03:12:46;11.57;;;7.85;;
7051;SDS011;3567;52.444;13.556;2022-10-23T03:15:13;11.15;;;7.95;;
7051;SDS011;3567;52.444;13.556;2022-10-23T03:17:39;10.77;;;7.20;;
7051;SDS011;3567;52.444;13.556;2022-10-23T03:20:06;7.82;;;6.97;;
7051;SDS011;3567;52.444;13.556;2022-10-23T03:22:32;7.95;;;7.15;;
7051;SDS011;3567;52.444;13.556;2022-10-23T03:24:57;7.00;;;6.30;;
7051;SDS011;3567;52.444;13.556;2022-10-23T03:27:22;9.40;;;7.53;;
7051;SDS011;3567;52.444;13.556;2022-10-23T03:29:48;8.50;;;7.70;;
7051;SDS011;3567;52.444;13.556;2022-10-23T03:32:13;10.30;;;7.32;;
7051;SDS011;3567;52.444;13.556;2022-10-23T03:34:38;12.68;;;7.55;;
7051;SDS011;3567;52.444;13.556;2022-10-23T03:37:04;8.95;;;7.68;;
7051;SDS011;3567;52.444;13.556;2022-10-23T03:39:29;12.45;;;7.25;;
7051;SDS011;3567;52.444;13.556;2022-10-23T03:41:55;11.27;;;7.22;;
7051;SDS011;3567;52.444;13.556;2022-10-23T03:44:20;11.55;;;7.45;;
7051;SDS011;3567;52.444;13.556;2022-10-23T03:46:45;10.20;;;7.35;;
7051;SDS011;3567;52.444;13.556;2022-10-23T03:49:11;8.90;;;7.95;;
7051;SDS011;3567;52.444;13.556;2022-10-23T03:51:36;9.20;;;8.23;;
7051;SDS011;3567;52.444;13.556;2022-10-23T03:54:05;12.40;;;7.13;;
7051;SDS011;3567;52.444;13.556;2022-10-23T03:56:31;8.55;;;7.53;;
7051;SDS011;3567;52.444;13.556;2022-10-23T03:58:56;15.15;;;7.85;;
7051;SDS011;3567;52.444;13.556;2022-10-23T04:01:21;12.68;;;8.57;;
7051;SDS011;3567;52.444;13.556;2022-10-23T04:03:47;9.07;;;8.18;;
7051;SDS011;3567;52.444;13.556;2022-10-23T04:06:12;9.02;;;8.10;;
7051;SDS011;3567;52.444;13.556;2022-10-23T04:08:38;11.20;;;7.53;;
7051;SDS011;3567;52.444;13.556;2022-10-23T04:11:03;10.40;;;7.18;;
7051;SDS011;3567;52.444;13.556;2022-10-23T04:13:28;10.52;;;7.75;;
7051;SDS011;3567;52.444;13.556;2022-10-23T04:15:54;9.13;;;6.63;;
7051;SDS011;3567;52.444;13.556;2022-10-23T04:18:19;10.13;;;7.47;;
7051;SDS011;3567;52.444;13.556;2022-10-23T04:20:48;10.25;;;6.68;;
7051;SDS011;3567;52.444;13.556;2022-10-23T04:23:14;7.00;;;6.32;;
7051;SDS011;3567;52.444;13.556;2022-10-23T04:25:40;7.50;;;6.22;;
7051;SDS011;3567;52.444;13.556;2022-10-23T04:28:05;9.38;;;7.03;;
7051;SDS011;3567;52.444;13.556;2022-10-23T04:30:31;12.45;;;8.23;;
7051;SDS011;3567;52.444;13.556;2022-10-23T04:32:56;9.27;;;8.38;;
7051;SDS011;3567;52.444;13.556;2022-10-23T04:35:21;8.93;;;7.43;;
7051;SDS011;3567;52.444;13.556;2022-10-23T04:37:47;11.32;;;7.78;;
7051;SDS011;3567;52.444;13.556;2022-10-23T04:40:12;10.88;;;7.78;;
7051;SDS011;3567;52.444;13.556;2022-10-23T04:42:37;10.90;;;7.28;;
7051;SDS011;3567;52.444;13.556;2022-10-23T04:45:03;12.35;;;9.05;;
7051;SDS011;3567;52.444;13.556;2022-10-23T04:47:29;10.35;;;8.68;;
7051;SDS011;3567;52.444;13.556;2022-10-23T04:49:55;8.80;;;7.90;;
7051;SDS011;3567;52.444;13.556;2022-10-23T04:52:33;9.73;;;7.68;;
7051;SDS011;3567;52.444;13.556;2022-10-23T04:54:58;10.55;;;9.45;;
7051;SDS011;3567;52.444;13.556;2022-10-23T04:57:23;14.70;;;10.57;;
7051;SDS011;3567;52.444;13.556;2022-10-23T04:59:49;9.52;;;8.52;;
7051;SDS011;3567;52.444;13.556;2022-10-23T05:02:14;12.75;;;9.02;;
7051;SDS011;3567;52.444;13.556;2022-10-23T05:04:39;8.63;;;7.63;;
7051;SDS011;3567;52.444;13.556;2022-10-23T05:07:05;9.05;;;8.05;;
7051;SDS011;3567;52.444;13.556;2022-10-23T05:09:30;11.55;;;7.90;;
7051;SDS011;3567;52.444;13.556;2022-10-23T05:11:56;13.73;;;8.05;;
7051;SDS011;3567;52.444;13.556;2022-10-23T05:14:21;9.15;;;8.25;;
7051;SDS011;3567;52.444;13.556;2022-10-23T05:19:19;8.07;;;7.28;;
7051;SDS011;3567;52.444;13.556;2022-10-23T05:21:47;14.00;;;10.65;;
7051;SDS011;3567;52.444;13.556;2022-10-23T05:24:19;13.55;;;11.10;;
7051;SDS011;3567;52.444;13.556;2022-10-23T05:26:45;11.65;;;10.45;;
7051;SDS011;3567;52.444;13.556;2022-10-23T05:29:10;13.80;;;10.23;;
7051;SDS011;3567;52.444;13.556;2022-10-23T05:31:35;14.38;;;10.10;;
7051;SDS011;3567;52.444;13.556;2022-10-23T05:34:01;10.65;;;8.77;;
7051;SDS011;3567;52.444;13.556;2022-10-23T05:36:26;10.00;;;8.73;;
7051;SDS011;3567;52.444;13.556;2022-10-23T05:38:52;10.10;;;7.97;;
7051;SDS011;3567;52.444;13.556;2022-10-23T05:41:18;13.07;;;9.10;;
7051;SDS011;3567;52.444;13.556;2022-10-23T05:43:43;11.55;;;8.70;;
7051;SDS011;3567;52.444;13.556;2022-10-23T05:46:10;13.30;;;8.18;;
7051;SDS011;3567;52.444;13.556;2022-10-23T05:48:36;10.23;;;8.77;;
7051;SDS011;3567;52.444;13.556;2022-10-23T05:51:05;13.05;;;8.13;;
7051;SDS011;3567;52.444;13.556;2022-10-23T05:53:32;9.95;;;7.75;;
7051;SDS011;3567;52.444;13.556;2022-10-23T05:56:07;9.20;;;8.25;;
7051;SDS011;3567;52.444;13.556;2022-10-23T05:58:32;15.07;;;9.88;;
7051;SDS011;3567;52.444;13.556;2022-10-23T06:00:58;11.52;;;9.00;;
7051;SDS011;3567;52.444;13.556;2022-10-23T06:03:28;9.27;;;8.23;;
7051;SDS011;3567;52.444;13.556;2022-10-23T06:05:53;9.93;;;8.82;;
7051;SDS011;3567;52.444;13.556;2022-10-23T06:08:18;8.07;;;7.25;;
7051;SDS011;3567;52.444;13.556;2022-10-23T06:10:44;10.57;;;8.18;;
7051;SDS011;3567;52.444;13.556;2022-10-23T06:13:09;14.35;;;8.70;;
7051;SDS011;3567;52.444;13.556;2022-10-23T06:15:34;12.52;;;8.63;;
7051;SDS011;3567;52.444;13.556;2022-10-23T06:18:00;9.15;;;8.25;;
7051;SDS011;3567;52.444;13.556;2022-10-23T06:20:26;11.70;;;8.32;;
7051;SDS011;3567;52.444;13.556;2022-10-23T06:22:52;10.65;;;9.15;;
7051;SDS011;3567;52.444;13.556;2022-10-23T06:25:17;12.25;;;9.13;;
7051;SDS011;3567;52.444;13.556;2022-10-23T06:27:42;11.02;;;8.00;;
7051;SDS011;3567;52.444;13.556;2022-10-23T06:30:08;10.85;;;8.77;;
7051;SDS011;3567;52.444;13.556;2022-10-23T06:32:33;11.60;;;9.15;;
7051;SDS011;3567;52.444;13.556;2022-10-23T06:34:59;10.18;;;8.57;;
7051;SDS011;3567;52.444;13.556;2022-10-23T06:37:24;11.60;;;8.27;;
7051;SDS011;3567;52.444;13.556;2022-10-23T06:39:49;18.05;;;12.68;;
7051;SDS011;3567;52.444;13.556;2022-10-23T06:42:15;19.15;;;13.48;;
7051;SDS011;3567;52.444;13.556;2022-10-23T06:44:40;12.90;;;10.00;;
7051;SDS011;3567;52.444;13.556;2022-10-23T06:47:05;13.80;;;11.57;;
7051;SDS011;3567;52.444;13.556;2022-10-23T06:49:33;21.23;;;13.63;;
7051;SDS011;3567;52.444;13.556;2022-10-23T06:51:59;21.77;;;14.82;;
7051;SDS011;3567;52.444;13.556;2022-10-23T06:54:24;20.48;;;14.07;;
7051;SDS011;3567;52.444;13.556;2022-10-23T06:56:49;18.83;;;14.50;;
7051;SDS011;3567;52.444;13.556;2022-10-23T06:59:15;21.02;;;15.25;;
7051;SDS011;3567;52.444;13.556;2022-10-23T07:01:40;21.60;;;16.40;;
7051;SDS011;3567;52.444;13.556;2022-10-23T07:04:06;24.48;;;16.83;;
7051;SDS011;3567;52.444;13.556;2022-10-23T07:06:31;26.00;;;16.98;;
7051;SDS011;3567;52.444;13.556;2022-10-23T07:08:57;25.05;;;15.90;;
7051;SDS011;3567;52.444;13.556;2022-10-23T07:11:23;24.23;;;15.80;;
7051;SDS011;3567;52.444;13.556;2022-10-23T07:13:49;21.63;;;16.45;;
7051;SDS011;3567;52.444;13.556;2022-10-23T07:16:15;20.95;;;15.00;;
7051;SDS011;3567;52.444;13.556;2022-10-23T07:18:43;17.02;;;15.23;;
7051;SDS011;3567;52.444;13.556;2022-10-23T07:21:09;19.10;;;13.95;;
7051;SDS011;3567;52.444;13.556;2022-10-23T07:23:35;17.60;;;14.85;;
7051;SDS011;3567;52.444;13.556;2022-10-23T07:26:04;19.08;;;14.93;;
7051;SDS011;3567;52.444;13.556;2022-10-23T07:28:30;16.35;;;14.43;;
7051;SDS011;3567;52.444;13.556;2022-10-23T07:33:29;20.65;;;14.75;;
7051;SDS011;3567;52.444;13.556;2022-10-23T07:35:54;17.48;;;15.57;;
7051;SDS011;3567;52.444;13.556;2022-10-23T07:38:19;17.00;;;14.15;;
7051;SDS011;3567;52.444;13.556;2022-10-23T07:40:45;16.08;;;12.75;;
7051;SDS011;3567;52.444;13.556;2022-10-23T07:43:10;14.85;;;13.23;;
7051;SDS011;3567;52.444;13.556;2022-10-23T07:45:36;15.68;;;12.55;;
7051;SDS011;3567;52.444;13.556;2022-10-23T07:48:01;12.95;;;11.75;;
7051;SDS011;3567;52.444;13.556;2022-10-23T07:50:26;13.90;;;12.07;;
7051;SDS011;3567;52.444;13.556;2022-10-23T07:52:52;18.42;;;11.90;;
7051;SDS011;3567;52.444;13.556;2022-10-23T07:55:17;14.15;;;11.88;;
7051;SDS011;3567;52.444;13.556;2022-10-23T07:57:42;15.45;;;10.80;;
7051;SDS011;3567;52.444;13.556;2022-10-23T08:00:09;11.85;;;10.63;;
7051;SDS011;3567;52.444;13.556;2022-10-23T08:02:35;13.05;;;10.10;;
7051;SDS011;3567;52.444;13.556;2022-10-23T08:05:01;12.48;;;10.75;;
7051;SDS011;3567;52.444;13.556;2022-10-23T08:07:26;10.85;;;9.38;;
7051;SDS011;3567;52.444;13.556;2022-10-23T08:09:52;15.80;;;13.38;;
7051;SDS011;3567;52.444;13.556;2022-10-23T08:12:17;11.77;;;9.13;;
7051;SDS011;3567;52.444;13.556;2022-10-23T08:14:42;13.30;;;9.00;;
7051;SDS011;3567;52.444;13.556;2022-10-23T08:17:08;12.75;;;8.77;;
7051;SDS011;3567;52.444;13.556;2022-10-23T08:19:34;14.23;;;8.60;;
7051;SDS011;3567;52.444;13.556;2022-10-23T08:22:00;10.02;;;8.40;;
7051;SDS011;3567;52.444;13.556;2022-10-23T08:24:25;10.52;;;8.07;;
7051;SDS011;3567;52.444;13.556;2022-10-23T08:26:51;10.50;;;8.27;;
7051;SDS011;3567;52.444;13.556;2022-10-23T08:29:16;11.05;;;7.82;;
7051;SDS011;3567;52.444;13.556;2022-10-23T08:31:41;8.93;;;8.02;;
7051;SDS011;3567;52.444;13.556;2022-10-23T08:34:07;8.63;;;7.07;;
7051;SDS011;3567;52.444;13.556;2022-10-23T08:36:32;9.07;;;6.25;;
7051;SDS011;3567;52.444;13.556;2022-10-23T08:38:58;9.50;;;7.00;;
7051;SDS011;3567;52.444;13.556;2022-10-23T08:41:36;10.48;;;6.25;;
7051;SDS011;3567;52.444;13.556;2022-10-23T08:44:07;8.30;;;5.72;;
7051;SDS011;3567;52.444;13.556;2022-10-23T08:46:43;6.32;;;5.18;;
7051;SDS011;3567;52.444;13.556;2022-10-23T08:51:44;8.90;;;5.97;;
7051;SDS011;3567;52.444;13.556;2022-10-23T08:54:18;6.63;;;5.40;;
7051;SDS011;3567;52.444;13.556;2022-10-23T08:56:47;9.70;;;5.03;;
7051;SDS011;3567;52.444;13.556;2022-10-23T09:03:03;4.15;;;3.63;;
7051;SDS011;3567;52.444;13.556;2022-10-23T09:04:59;7.15;;;4.63;;
7051;SDS011;3567;52.444;13.556;2022-10-23T09:07:26;6.60;;;4.40;;
7051;SDS011;3567;52.444;13.556;2022-10-23T09:12:43;6.25;;;4.80;;
7051;SDS011;3567;52.444;13.556;2022-10-23T09:17:59;11.32;;;5.30;;
7051;SDS011;3567;52.444;13.556;2022-10-23T09:20:27;6.10;;;3.85;;
7051;SDS011;3567;52.444;13.556;2022-10-23T09:22:57;7.65;;;4.20;;
7051;SDS011;3567;52.444;13.556;2022-10-23T09:25:25;7.72;;;3.92;;
7051;SDS011;3567;52.444;13.556;2022-10-23T09:27:54;5.32;;;4.13;;
7051;SDS011;3567;52.444;13.556;2022-10-23T09:33:14;4.40;;;3.85;;
7051;SDS011;3567;52.444;13.556;2022-10-23T09:41:13;8.10;;;3.58;;
7051;SDS011;3567;52.444;13.556;2022-10-23T09:46:48;6.88;;;3.38;;
7051;SDS011;3567;52.444;13.556;2022-10-23T09:49:18;5.55;;;3.10;;
7051;SDS011;3567;52.444;13.556;2022-10-23T09:51:50;11.75;;;3.55;;
7051;SDS011;3567;52.444;13.556;2022-10-23T09:54:16;8.40;;;3.58;;
7051;SDS011;3567;52.444;13.556;2022-10-23T09:56:45;5.97;;;3.08;;
7051;SDS011;3567;52.444;13.556;2022-10-23T10:01:45;3.83;;;2.40;;
7051;SDS011;3567;52.444;13.556;2022-10-23T10:04:13;6.72;;;2.97;;
7051;SDS011;3567;52.444;13.556;2022-10-23T10:06:38;6.18;;;2.90;;
7051;SDS011;3567;52.444;13.556;2022-10-23T10:09:05;3.80;;;2.50;;
7051;SDS011;3567;52.444;13.556;2022-10-23T10:20:02;6.65;;;2.88;;
7051;SDS011;3567;52.444;13.556;2022-10-23T10:25:19;4.80;;;3.05;;
7051;SDS011;3567;52.444;13.556;2022-10-23T10:38:58;2.78;;;1.95;;
7051;SDS011;3567;52.444;13.556;2022-10-23T10:46:30;3.58;;;1.80;;
7051;SDS011;3567;52.444;13.556;2022-10-23T10:49:14;5.35;;;1.80;;
7051;SDS011;3567;52.444;13.556;2022-10-23T10:51:51;4.70;;;1.33;;
7051;SDS011;3567;52.444;13.556;2022-10-23T10:56:53;4.28;;;2.45;;
7051;SDS011;3567;52.444;13.556;2022-10-23T10:59:22;6.35;;;1.92;;
7051;SDS011;3567;52.444;13.556;2022-10-23T11:04:32;13.88;;;7.28;;
7051;SDS011;3567;52.444;13.556;2022-10-23T11:07:06;7.00;;;2.72;;
7051;SDS011;3567;52.444;13.556;2022-10-23T11:09:42;4.93;;;1.70;;
7051;SDS011;3567;52.444;13.556;2022-10-23T11:12:18;3.33;;;1.50;;
7051;SDS011;3567;52.444;13.556;2022-10-23T11:14:47;3.17;;;1.40;;
7051;SDS011;3567;52.444;13.556;2022-10-23T11:17:47;2.40;;;1.23;;
7051;SDS011;3567;52.444;13.556;2022-10-23T11:20:24;2.13;;;1.02;;
7051;SDS011;3567;52.444;13.556;2022-10-23T11:23:05;4.55;;;1.27;;
7051;SDS011;3567;52.444;13.556;2022-10-23T11:36:34;2.95;;;1.13;;
7051;SDS011;3567;52.444;13.556;2022-10-23T11:39:26;2.10;;;1.00;;
7051;SDS011;3567;52.444;13.556;2022-10-23T11:41:58;5.20;;;1.60;;
7051;SDS011;3567;52.444;13.556;2022-10-23T11:44:40;6.13;;;1.50;;
7051;SDS011;3567;52.444;13.556;2022-10-23T11:47:54;2.53;;;1.17;;
7051;SDS011;3567;52.444;13.556;2022-10-23T11:52:31;2.50;;;1.33;;
7051;SDS011;3567;52.444;13.556;2022-10-23T11:55:01;4.30;;;1.30;;
7051;SDS011;3567;52.444;13.556;2022-10-23T11:57:42;4.25;;;1.10;;
7051;SDS011;3567;52.444;13.556;2022-10-23T12:00:18;5.45;;;1.35;;
7051;SDS011;3567;52.444;13.556;2022-10-23T12:02:48;5.57;;;2.10;;
7051;SDS011;3567;52.444;13.556;2022-10-23T12:05:32;3.85;;;1.35;;
7051;SDS011;3567;52.444;13.556;2022-10-23T12:08:02;4.47;;;1.38;;
7051;SDS011;3567;52.444;13.556;2022-10-23T12:10:31;6.38;;;1.27;;
7051;SDS011;3567;52.444;13.556;2022-10-23T12:12:59;2.45;;;1.25;;
7051;SDS011;3567;52.444;13.556;2022-10-23T12:15:28;8.48;;;1.30;;
7051;SDS011;3567;52.444;13.556;2022-10-23T12:20:53;3.95;;;1.00;;
7051;SDS011;3567;52.444;13.556;2022-10-23T12:28:28;2.13;;;1.05;;
7051;SDS011;3567;52.444;13.556;2022-10-23T12:38:58;4.60;;;1.23;;
7051;SDS011;3567;52.444;13.556;2022-10-23T12:41:24;2.58;;;0.70;;
7051;SDS011;3567;52.444;13.556;2022-10-23T12:43:52;2.58;;;1.23;;
7051;SDS011;3567;52.444;13.556;2022-10-23T12:46:33;9.38;;;1.40;;
7051;SDS011;3567;52.444;13.556;2022-10-23T12:49:01;3.95;;;0.90;;
7051;SDS011;3567;52.444;13.556;2022-10-23T12:51:29;3.53;;;1.38;;
7051;SDS011;3567;52.444;13.556;2022-10-23T12:53:56;5.25;;;1.08;;
7051;SDS011;3567;52.444;13.556;2022-10-23T12:56:22;4.63;;;0.90;;
7051;SDS011;3567;52.444;13.556;2022-10-23T12:58:53;1.75;;;1.05;;
7051;SDS011;3567;52.444;13.556;2022-10-23T13:01:30;4.00;;;1.05;;
7051;SDS011;3567;52.444;13.556;2022-10-23T13:03:58;1.38;;;0.82;;
7051;SDS011;3567;52.444;13.556;2022-10-23T13:06:31;2.92;;;1.42;;
7051;SDS011;3567;52.444;13.556;2022-10-23T13:08:57;4.80;;;1.05;;
7051;SDS011;3567;52.444;13.556;2022-10-23T13:11:23;3.03;;;1.08;;
7051;SDS011;3567;52.444;13.556;2022-10-23T13:13:50;2.15;;;1.02;;
7051;SDS011;3567;52.444;13.556;2022-10-23T13:16:17;2.30;;;1.00;;
7051;SDS011;3567;52.444;13.556;2022-10-23T13:18:45;6.93;;;2.85;;
7051;SDS011;3567;52.444;13.556;2022-10-23T13:21:29;1.63;;;0.90;;
7051;SDS011;3567;52.444;13.556;2022-10-23T13:23:54;2.88;;;1.05;;
7051;SDS011;3567;52.444;13.556;2022-10-23T13:28:45;3.88;;;1.00;;
7051;SDS011;3567;52.444;13.556;2022-10-23T13:33:37;3.38;;;1.02;;
7051;SDS011;3567;52.444;13.556;2022-10-23T13:36:19;4.38;;;1.10;;
7051;SDS011;3567;52.444;13.556;2022-10-23T13:41:33;5.55;;;1.05;;
7051;SDS011;3567;52.444;13.556;2022-10-23T13:44:02;1.20;;;0.70;;
7051;SDS011;3567;52.444;13.556;2022-10-23T13:46:27;4.05;;;1.10;;
7051;SDS011;3567;52.444;13.556;2022-10-23T13:48:53;7.22;;;1.08;;
7051;SDS011;3567;52.444;13.556;2022-10-23T13:51:20;8.30;;;4.63;;
7051;SDS011;3567;52.444;13.556;2022-10-23T13:53:48;9.38;;;2.90;;
7051;SDS011;3567;52.444;13.556;2022-10-23T13:56:15;2.88;;;1.88;;
7051;SDS011;3567;52.444;13.556;2022-10-23T13:58:42;3.25;;;1.20;;
7051;SDS011;3567;52.444;13.556;2022-10-23T14:01:26;4.40;;;1.77;;
7051;SDS011;3567;52.444;13.556;2022-10-23T14:03:54;5.53;;;1.00;;
7051;SDS011;3567;52.444;13.556;2022-10-23T14:06:20;3.05;;;1.20;;
7051;SDS011;3567;52.444;13.556;2022-10-23T14:08:46;5.40;;;1.33;;
7051;SDS011;3567;52.444;13.556;2022-10-23T14:11:12;4.28;;;1.35;;
7051;SDS011;3567;52.444;13.556;2022-10-23T14:13:39;5.43;;;1.60;;
7051;SDS011;3567;52.444;13.556;2022-10-23T14:16:05;2.35;;;1.08;;
7051;SDS011;3567;52.444;13.556;2022-10-23T14:18:32;3.33;;;1.20;;
7051;SDS011;3567;52.444;13.556;2022-10-23T14:20:59;3.63;;;1.52;;
7051;SDS011;3567;52.444;13.556;2022-10-23T14:23:28;5.50;;;0.90;;
7051;SDS011;3567;52.444;13.556;2022-10-23T14:25:53;4.40;;;1.40;;
7051;SDS011;3567;52.444;13.556;2022-10-23T14:28:18;3.75;;;1.20;;
7051;SDS011;3567;52.444;13.556;2022-10-23T14:30:44;6.25;;;1.75;;
7051;SDS011;3567;52.444;13.556;2022-10-23T14:33:09;3.40;;;0.93;;
7051;SDS011;3567;52.444;13.556;2022-10-23T14:35:38;5.13;;;1.23;;
7051;SDS011;3567;52.444;13.556;2022-10-23T14:38:04;3.13;;;1.15;;
7051;SDS011;3567;52.444;13.556;2022-10-23T14:40:30;6.78;;;1.65;;
7051;SDS011;3567;52.444;13.556;2022-10-23T14:42:55;6.53;;;1.20;;
7051;SDS011;3567;52.444;13.556;2022-10-23T14:45:20;1.95;;;1.30;;
7051;SDS011;3567;52.444;13.556;2022-10-23T14:47:46;3.53;;;1.33;;
7051;SDS011;3567;52.444;13.556;2022-10-23T14:50:12;7.72;;;1.35;;
7051;SDS011;3567;52.444;13.556;2022-10-23T14:52:38;3.58;;;1.30;;
7051;SDS011;3567;52.444;13.556;2022-10-23T14:55:03;11.00;;;4.65;;
7051;SDS011;3567;52.444;13.556;2022-10-23T14:57:29;3.35;;;2.78;;
7051;SDS011;3567;52.444;13.556;2022-10-23T14:59:54;7.50;;;2.92;;
7051;SDS011;3567;52.444;13.556;2022-10-23T15:02:19;3.38;;;2.05;;
7051;SDS011;3567;52.444;13.556;2022-10-23T15:04:45;4.07;;;1.90;;
7051;SDS011;3567;52.444;13.556;2022-10-23T15:07:10;2.60;;;1.70;;
7051;SDS011;3567;52.444;13.556;2022-10-23T15:09:35;6.43;;;2.13;;
7051;SDS011;3567;52.444;13.556;2022-10-23T15:12:02;6.55;;;1.95;;
7051;SDS011;3567;52.444;13.556;2022-10-23T15:14:28;6.82;;;1.70;;
7051;SDS011;3567;52.444;13.556;2022-10-23T15:16:53;5.53;;;1.83;;
7051;SDS011;3567;52.444;13.556;2022-10-23T15:19:19;4.40;;;1.60;;
7051;SDS011;3567;52.444;13.556;2022-10-23T15:21:45;2.28;;;1.73;;
7051;SDS011;3567;52.444;13.556;2022-10-23T15:24:11;2.53;;;1.77;;
7051;SDS011;3567;52.444;13.556;2022-10-23T15:26:37;4.53;;;1.83;;
7051;SDS011;3567;52.444;13.556;2022-10-23T15:29:03;7.15;;;2.00;;
7051;SDS011;3567;52.444;13.556;2022-10-23T15:33:55;4.78;;;2.00;;
7051;SDS011;3567;52.444;13.556;2022-10-23T15:36:21;4.93;;;2.05;;
7051;SDS011;3567;52.444;13.556;2022-10-23T15:38:46;4.93;;;2.13;;
7051;SDS011;3567;52.444;13.556;2022-10-23T15:41:13;7.50;;;2.60;;
7051;SDS011;3567;52.444;13.556;2022-10-23T15:43:41;5.53;;;2.67;;
7051;SDS011;3567;52.444;13.556;2022-10-23T15:46:06;3.83;;;2.58;;
7051;SDS011;3567;52.444;13.556;2022-10-23T15:48:32;5.90;;;3.15;;
7051;SDS011;3567;52.444;13.556;2022-10-23T15:50:57;3.47;;;2.38;;
7051;SDS011;3567;52.444;13.556;2022-10-23T15:53:23;11.65;;;2.60;;
7051;SDS011;3567;52.444;13.556;2022-10-23T15:55:49;4.15;;;2.50;;
7051;SDS011;3567;52.444;13.556;2022-10-23T15:58:14;5.32;;;2.78;;
7051;SDS011;3567;52.444;13.556;2022-10-23T16:00:40;10.25;;;2.50;;
7051;SDS011;3567;52.444;13.556;2022-10-23T16:03:05;2.63;;;2.13;;
7051;SDS011;3567;52.444;13.556;2022-10-23T16:05:30;7.57;;;2.45;;
7051;SDS011;3567;52.444;13.556;2022-10-23T16:07:56;8.40;;;2.28;;
7051;SDS011;3567;52.444;13.556;2022-10-23T16:10:21;4.38;;;2.35;;
7051;SDS011;3567;52.444;13.556;2022-10-23T16:12:47;6.25;;;2.88;;
7051;SDS011;3567;52.444;13.556;2022-10-23T16:15:12;7.20;;;2.50;;
7051;SDS011;3567;52.444;13.556;2022-10-23T16:17:38;4.45;;;2.05;;
7051;SDS011;3567;52.444;13.556;2022-10-23T16:20:03;4.72;;;3.70;;
7051;SDS011;3567;52.444;13.556;2022-10-23T16:22:29;7.38;;;4.32;;
7051;SDS011;3567;52.444;13.556;2022-10-23T16:24:54;4.20;;;3.30;;
7051;SDS011;3567;52.444;13.556;2022-10-23T16:27:20;4.95;;;2.58;;
7051;SDS011;3567;52.444;13.556;2022-10-23T16:29:45;12.40;;;2.83;;
7051;SDS011;3567;52.444;13.556;2022-10-23T16:32:11;6.95;;;2.60;;
7051;SDS011;3567;52.444;13.556;2022-10-23T16:34:36;17.92;;;2.50;;
7051;SDS011;3567;52.444;13.556;2022-10-23T16:37:01;6.13;;;4.13;;
7051;SDS011;3567;52.444;13.556;2022-10-23T16:39:27;6.55;;;4.00;;
7051;SDS011;3567;52.444;13.556;2022-10-23T16:41:54;7.60;;;4.65;;
7051;SDS011;3567;52.444;13.556;2022-10-23T16:44:19;5.28;;;4.45;;
7051;SDS011;3567;52.444;13.556;2022-10-23T16:46:45;8.38;;;4.82;;
7051;SDS011;3567;52.444;13.556;2022-10-23T16:49:10;6.18;;;4.18;;
7051;SDS011;3567;52.444;13.556;2022-10-23T16:51:37;6.72;;;3.47;;
7051;SDS011;3567;52.444;13.556;2022-10-23T16:54:03;6.75;;;2.70;;
7051;SDS011;3567;52.444;13.556;2022-10-23T16:56:29;3.70;;;2.72;;
7051;SDS011;3567;52.444;13.556;2022-10-23T16:58:56;3.28;;;2.55;;
7051;SDS011;3567;52.444;13.556;2022-10-23T17:01:25;9.05;;;2.95;;
7051;SDS011;3567;52.444;13.556;2022-10-23T17:03:53;11.68;;;3.10;;
7051;SDS011;3567;52.444;13.556;2022-10-23T17:06:20;6.18;;;3.05;;
7051;SDS011;3567;52.444;13.556;2022-10-23T17:08:51;11.13;;;3.17;;
7051;SDS011;3567;52.444;13.556;2022-10-23T17:11:17;5.65;;;4.00;;